Etusivu
METAR-TAF:

METAR-TAF

Lentoasemat :

Meridian, Mississippi, Yhdysvallat

Leveyspiiri: 32-32-47N, Pituuspiiri: 088-32-35W, korkeus merenpinnasta: 96 m

Tämänhetkinen sää

Tämä raportti tehtiin 42 minuuttia sitten, kello 09.56 UTC
tyyntä
Lämpötila -3°C
Kosteus 74%
Ilmanpaine 1029 hPa
Näkyvyys: 16.1 km
selkeää

METAR: KNMM 200956Z AUTO 00000KT 10SM CLR M03/M07 A3040 RMK AO2 SLP308 T10331067 $

Aika: 05:38 (10:38 UTC)

Sääennuste

Ennuste voimassa 20. päivästä klo 07 UTC - 21. päivään klo 07 UTC
Tuuli 6 kn eri suunnista
Näkyvyys 10 km tai enemmän
Muutamia pilviä 3500 ft:n korkeudessa
Tulossa
20. päivästä klo 18 UTC - 20. päivään klo 20 UTC
Tuuli 4 kn eri suunnista
Näkyvyys 10 km tai enemmän
Hajanaisia pilviä 22000 ft:n korkeudessa

TAF: KNMM 2007/2107 VRB06KT 9999 FEW035 QNH3035INS BECMG 2018/2020 VRB04KT 9999 SCT220 QNG3028INS TX11/2021Z TNM01/2013Z FN00262

Säähavainnot ja -ennusteet yli 4000 lentoasemalta (METAR- ja TAF-raportit).

Käytössä olevat sääasemat on merkitty karttaan keltaisilla ja punaisilla pisteillä.

Aseta hiiri pisteen päälle nähdäksesi sääaseman nimen.

Klikkaa sitten nähdäksesi säähavainnot ja -ennusteet.

Kartan vaihtaminen: klikkaa mustalla rastilla varustettuja vihreitä pisteitä, niin voit zoomata sisään; viivalla varustettua vihreää pistettä, niin voit zoomata ulos tai vihreitä nuolia, niin pääset viereisille kartoille.


METAR-TAF: